sensor_id;sensor_type;location;lat;lon;timestamp;temperature;humidity
73833;SHT30;62179;48.444;-4.464;2022-10-16T09:52:05;15.45;82.54
73833;SHT30;62179;48.444;-4.464;2022-10-16T09:54:30;15.48;82.37
73833;SHT30;62179;48.444;-4.464;2022-10-16T09:57:13;15.48;82.13
73833;SHT30;62179;48.444;-4.464;2022-10-16T09:59:46;15.48;82.15
73833;SHT30;62179;48.444;-4.464;2022-10-16T10:02:14;15.52;82.11
73833;SHT30;62179;48.444;-4.464;2022-10-16T10:04:47;15.57;82.05
73833;SHT30;62179;48.444;-4.464;2022-10-16T10:07:37;15.58;81.93
73833;SHT30;62179;48.444;-4.464;2022-10-16T10:10:06;15.59;82.06
73833;SHT30;62179;48.444;-4.464;2022-10-16T10:12:32;15.62;82.29
73833;SHT30;62179;48.444;-4.464;2022-10-16T10:15:19;15.59;82.17
73833;SHT30;62179;48.444;-4.464;2022-10-16T10:17:54;15.61;82.50
73833;SHT30;62179;48.444;-4.464;2022-10-16T10:20:31;15.59;82.59
73833;SHT30;62179;48.444;-4.464;2022-10-16T10:23:13;15.61;82.89
73833;SHT30;62179;48.444;-4.464;2022-10-16T10:26:07;15.61;83.11
73833;SHT30;62179;48.444;-4.464;2022-10-16T10:28:58;15.62;83.25
73833;SHT30;62179;48.444;-4.464;2022-10-16T10:31:34;15.63;83.43
73833;SHT30;62179;48.444;-4.464;2022-10-16T10:39:46;15.68;83.60
73833;SHT30;62179;48.444;-4.464;2022-10-16T10:50:18;15.73;83.76
73833;SHT30;62179;48.444;-4.464;2022-10-16T11:06:31;15.73;83.82
73833;SHT30;62179;48.444;-4.464;2022-10-16T11:09:19;15.72;83.72
73833;SHT30;62179;48.444;-4.464;2022-10-16T11:14:20;15.79;84.45
73833;SHT30;62179;48.444;-4.464;2022-10-16T11:22:34;15.88;84.46
73833;SHT30;62179;48.444;-4.464;2022-10-16T11:25:18;15.91;84.45
73833;SHT30;62179;48.444;-4.464;2022-10-16T11:35:47;16.00;84.73
73833;SHT30;62179;48.444;-4.464;2022-10-16T11:38:33;16.02;84.35
73833;SHT30;62179;48.444;-4.464;2022-10-16T11:41:07;16.03;84.54
73833;SHT30;62179;48.444;-4.464;2022-10-16T11:43:39;16.03;84.75
73833;SHT30;62179;48.444;-4.464;2022-10-16T11:46:27;16.05;84.57
73833;SHT30;62179;48.444;-4.464;2022-10-16T11:51:40;16.08;84.86
73833;SHT30;62179;48.444;-4.464;2022-10-16T11:54:20;16.09;85.46
73833;SHT30;62179;48.444;-4.464;2022-10-16T11:56:49;16.09;85.48
73833;SHT30;62179;48.444;-4.464;2022-10-16T12:01:52;16.13;85.36
73833;SHT30;62179;48.444;-4.464;2022-10-16T12:04:31;16.14;85.47
73833;SHT30;62179;48.444;-4.464;2022-10-16T12:07:06;16.20;85.56
73833;SHT30;62179;48.444;-4.464;2022-10-16T12:09:36;16.19;85.35
73833;SHT30;62179;48.444;-4.464;2022-10-16T12:12:02;16.23;85.18
73833;SHT30;62179;48.444;-4.464;2022-10-16T12:14:37;16.23;85.16
73833;SHT30;62179;48.444;-4.464;2022-10-16T12:17:23;16.23;85.82
73833;SHT30;62179;48.444;-4.464;2022-10-16T12:20:00;16.23;85.66
73833;SHT30;62179;48.444;-4.464;2022-10-16T12:22:29;16.24;85.79
73833;SHT30;62179;48.444;-4.464;2022-10-16T12:24:56;16.26;85.74
73833;SHT30;62179;48.444;-4.464;2022-10-16T12:27:32;16.27;86.11
73833;SHT30;62179;48.444;-4.464;2022-10-16T12:30:03;16.27;85.99
73833;SHT30;62179;48.444;-4.464;2022-10-16T12:32:33;16.30;86.06
73833;SHT30;62179;48.444;-4.464;2022-10-16T12:35:00;16.33;85.95
73833;SHT30;62179;48.444;-4.464;2022-10-16T12:37:35;16.34;86.23
73833;SHT30;62179;48.444;-4.464;2022-10-16T12:40:23;16.39;86.12
73833;SHT30;62179;48.444;-4.464;2022-10-16T12:42:50;16.39;85.78
73833;SHT30;62179;48.444;-4.464;2022-10-16T12:45:32;16.39;86.23
73833;SHT30;62179;48.444;-4.464;2022-10-16T12:48:03;16.41;86.68
73833;SHT30;62179;48.444;-4.464;2022-10-16T12:50:37;16.44;86.10
73833;SHT30;62179;48.444;-4.464;2022-10-16T12:53:18;16.46;86.78
73833;SHT30;62179;48.444;-4.464;2022-10-16T12:55:57;16.47;86.38
73833;SHT30;62179;48.444;-4.464;2022-10-16T12:59:16;16.49;86.92
73833;SHT30;62179;48.444;-4.464;2022-10-16T13:02:01;16.53;87.14
73833;SHT30;62179;48.444;-4.464;2022-10-16T13:04:44;16.54;87.73
73833;SHT30;62179;48.444;-4.464;2022-10-16T13:29:53;16.54;93.48
73833;SHT30;62179;48.444;-4.464;2022-10-16T13:32:21;16.56;93.47
73833;SHT30;62179;48.444;-4.464;2022-10-16T13:34:48;16.57;93.31
73833;SHT30;62179;48.444;-4.464;2022-10-16T13:37:23;16.59;93.33
73833;SHT30;62179;48.444;-4.464;2022-10-16T13:39:49;16.60;93.00
73833;SHT30;62179;48.444;-4.464;2022-10-16T13:42:25;16.61;93.04
73833;SHT30;62179;48.444;-4.464;2022-10-16T13:44:53;16.65;92.91
73833;SHT30;62179;48.444;-4.464;2022-10-16T13:50:05;16.71;92.42
73833;SHT30;62179;48.444;-4.464;2022-10-16T13:52:31;16.71;92.26
73833;SHT30;62179;48.444;-4.464;2022-10-16T13:54:57;16.77;91.95
73833;SHT30;62179;48.444;-4.464;2022-10-16T13:57:24;16.80;92.20
73833;SHT30;62179;48.444;-4.464;2022-10-16T13:59:50;16.84;91.71
73833;SHT30;62179;48.444;-4.464;2022-10-16T14:02:26;16.85;91.18
73833;SHT30;62179;48.444;-4.464;2022-10-16T14:04:53;16.89;90.94
73833;SHT30;62179;48.444;-4.464;2022-10-16T14:07:27;16.94;90.48
73833;SHT30;62179;48.444;-4.464;2022-10-16T14:09:54;16.98;89.98
73833;SHT30;62179;48.444;-4.464;2022-10-16T14:12:21;17.02;89.61
73833;SHT30;62179;48.444;-4.464;2022-10-16T14:14:49;17.04;89.70
73833;SHT30;62179;48.444;-4.464;2022-10-16T14:17:26;17.08;89.45
73833;SHT30;62179;48.444;-4.464;2022-10-16T14:19:55;17.11;89.14
73833;SHT30;62179;48.444;-4.464;2022-10-16T14:24:56;17.16;89.08
73833;SHT30;62179;48.444;-4.464;2022-10-16T14:27:32;17.15;89.46
73833;SHT30;62179;48.444;-4.464;2022-10-16T14:32:32;17.18;89.19
73833;SHT30;62179;48.444;-4.464;2022-10-16T14:34:58;17.19;89.13
73833;SHT30;62179;48.444;-4.464;2022-10-16T14:37:28;17.25;88.60
73833;SHT30;62179;48.444;-4.464;2022-10-16T14:39:54;17.28;88.56
73833;SHT30;62179;48.444;-4.464;2022-10-16T14:42:24;17.28;88.55
73833;SHT30;62179;48.444;-4.464;2022-10-16T14:44:54;17.29;88.43
73833;SHT30;62179;48.444;-4.464;2022-10-16T14:47:25;17.32;88.62
73833;SHT30;62179;48.444;-4.464;2022-10-16T14:49:52;17.30;88.35
73833;SHT30;62179;48.444;-4.464;2022-10-16T14:52:20;17.35;88.27
73833;SHT30;62179;48.444;-4.464;2022-10-16T14:54:49;17.33;88.08
73833;SHT30;62179;48.444;-4.464;2022-10-16T14:57:19;17.38;87.95
73833;SHT30;62179;48.444;-4.464;2022-10-16T14:59:46;17.36;87.98
73833;SHT30;62179;48.444;-4.464;2022-10-16T15:04:48;17.39;88.00
73833;SHT30;62179;48.444;-4.464;2022-10-16T15:07:13;17.40;87.92
73833;SHT30;62179;48.444;-4.464;2022-10-16T15:09:38;17.38;87.52
73833;SHT30;62179;48.444;-4.464;2022-10-16T15:12:04;17.36;87.43
73833;SHT30;62179;48.444;-4.464;2022-10-16T15:14:29;17.39;87.43
73833;SHT30;62179;48.444;-4.464;2022-10-16T15:16:55;17.40;87.41
73833;SHT30;62179;48.444;-4.464;2022-10-16T15:19:20;17.42;87.47
73833;SHT30;62179;48.444;-4.464;2022-10-16T15:21:47;17.42;87.62
73833;SHT30;62179;48.444;-4.464;2022-10-16T15:24:13;17.42;87.43
73833;SHT30;62179;48.444;-4.464;2022-10-16T15:26:39;17.43;87.80
73833;SHT30;62179;48.444;-4.464;2022-10-16T15:29:05;17.45;87.65
73833;SHT30;62179;48.444;-4.464;2022-10-16T15:31:31;17.45;87.50
73833;SHT30;62179;48.444;-4.464;2022-10-16T15:33:56;17.46;88.03
73833;SHT30;62179;48.444;-4.464;2022-10-16T15:36:31;17.47;87.57
73833;SHT30;62179;48.444;-4.464;2022-10-16T15:38:59;17.46;87.75
73833;SHT30;62179;48.444;-4.464;2022-10-16T15:41:24;17.47;87.51
73833;SHT30;62179;48.444;-4.464;2022-10-16T15:43:50;17.49;87.70
73833;SHT30;62179;48.444;-4.464;2022-10-16T15:46:21;17.50;87.52
73833;SHT30;62179;48.444;-4.464;2022-10-16T15:48:48;17.50;87.55
73833;SHT30;62179;48.444;-4.464;2022-10-16T15:51:15;17.50;87.43
73833;SHT30;62179;48.444;-4.464;2022-10-16T15:53:41;17.53;87.23
73833;SHT30;62179;48.444;-4.464;2022-10-16T15:56:08;17.50;87.56
73833;SHT30;62179;48.444;-4.464;2022-10-16T15:58:34;17.53;87.67
73833;SHT30;62179;48.444;-4.464;2022-10-16T16:01:00;17.51;87.97
73833;SHT30;62179;48.444;-4.464;2022-10-16T16:03:27;17.51;87.79
73833;SHT30;62179;48.444;-4.464;2022-10-16T16:05:53;17.50;87.55
73833;SHT30;62179;48.444;-4.464;2022-10-16T16:08:19;17.53;87.32
73833;SHT30;62179;48.444;-4.464;2022-10-16T16:10:45;17.51;87.47
73833;SHT30;62179;48.444;-4.464;2022-10-16T16:13:10;17.50;87.51
73833;SHT30;62179;48.444;-4.464;2022-10-16T16:15:39;17.51;87.61
73833;SHT30;62179;48.444;-4.464;2022-10-16T16:18:06;17.51;87.25
73833;SHT30;62179;48.444;-4.464;2022-10-16T16:20:31;17.51;87.31
73833;SHT30;62179;48.444;-4.464;2022-10-16T16:22:57;17.50;87.05
73833;SHT30;62179;48.444;-4.464;2022-10-16T16:25:22;17.51;87.25
73833;SHT30;62179;48.444;-4.464;2022-10-16T16:27:48;17.53;87.40
73833;SHT30;62179;48.444;-4.464;2022-10-16T16:30:14;17.53;86.93
73833;SHT30;62179;48.444;-4.464;2022-10-16T16:32:39;17.53;87.36
73833;SHT30;62179;48.444;-4.464;2022-10-16T16:35:05;17.51;87.55
73833;SHT30;62179;48.444;-4.464;2022-10-16T16:37:30;17.50;87.41
73833;SHT30;62179;48.444;-4.464;2022-10-16T16:39:56;17.53;87.15
73833;SHT30;62179;48.444;-4.464;2022-10-16T16:42:24;17.51;87.33
73833;SHT30;62179;48.444;-4.464;2022-10-16T16:44:50;17.54;87.06
73833;SHT30;62179;48.444;-4.464;2022-10-16T16:47:16;17.54;87.03
73833;SHT30;62179;48.444;-4.464;2022-10-16T16:49:41;17.53;87.34
73833;SHT30;62179;48.444;-4.464;2022-10-16T16:52:06;17.56;86.87
73833;SHT30;62179;48.444;-4.464;2022-10-16T16:54:32;17.56;86.61
73833;SHT30;62179;48.444;-4.464;2022-10-16T16:56:57;17.54;87.09
73833;SHT30;62179;48.444;-4.464;2022-10-16T16:59:23;17.57;87.59
73833;SHT30;62179;48.444;-4.464;2022-10-16T17:01:49;17.57;87.28
73833;SHT30;62179;48.444;-4.464;2022-10-16T17:04:14;17.57;87.28
73833;SHT30;62179;48.444;-4.464;2022-10-16T17:06:40;17.56;87.16
73833;SHT30;62179;48.444;-4.464;2022-10-16T17:09:07;17.56;86.68
73833;SHT30;62179;48.444;-4.464;2022-10-16T17:11:33;17.54;87.32
73833;SHT30;62179;48.444;-4.464;2022-10-16T17:14:00;17.57;87.70
73833;SHT30;62179;48.444;-4.464;2022-10-16T17:16:29;17.56;87.10
73833;SHT30;62179;48.444;-4.464;2022-10-16T17:18:55;17.53;87.07
73833;SHT30;62179;48.444;-4.464;2022-10-16T17:21:20;17.53;87.03
73833;SHT30;62179;48.444;-4.464;2022-10-16T17:23:46;17.53;86.86
73833;SHT30;62179;48.444;-4.464;2022-10-16T17:26:14;17.54;87.13
73833;SHT30;62179;48.444;-4.464;2022-10-16T17:28:40;17.54;87.04
73833;SHT30;62179;48.444;-4.464;2022-10-16T17:31:17;17.50;86.68
73833;SHT30;62179;48.444;-4.464;2022-10-16T17:33:44;17.53;86.64
73833;SHT30;62179;48.444;-4.464;2022-10-16T17:36:10;17.51;87.03
73833;SHT30;62179;48.444;-4.464;2022-10-16T17:38:36;17.49;86.55
73833;SHT30;62179;48.444;-4.464;2022-10-16T17:41:22;17.51;87.43
73833;SHT30;62179;48.444;-4.464;2022-10-16T17:43:49;17.50;86.93
73833;SHT30;62179;48.444;-4.464;2022-10-16T17:46:18;17.49;86.76
73833;SHT30;62179;48.444;-4.464;2022-10-16T17:48:45;17.50;86.77
73833;SHT30;62179;48.444;-4.464;2022-10-16T17:51:14;17.53;87.15
73833;SHT30;62179;48.444;-4.464;2022-10-16T17:53:40;17.49;86.99
73833;SHT30;62179;48.444;-4.464;2022-10-16T17:56:07;17.49;86.86
73833;SHT30;62179;48.444;-4.464;2022-10-16T17:58:33;17.51;87.09
73833;SHT30;62179;48.444;-4.464;2022-10-16T18:00:59;17.49;86.98
73833;SHT30;62179;48.444;-4.464;2022-10-16T18:03:25;17.51;87.07
73833;SHT30;62179;48.444;-4.464;2022-10-16T18:05:52;17.49;86.76
73833;SHT30;62179;48.444;-4.464;2022-10-16T18:08:17;17.51;87.07
73833;SHT30;62179;48.444;-4.464;2022-10-16T18:10:47;17.49;87.23
73833;SHT30;62179;48.444;-4.464;2022-10-16T18:13:13;17.49;86.91
73833;SHT30;62179;48.444;-4.464;2022-10-16T18:15:39;17.47;86.73
73833;SHT30;62179;48.444;-4.464;2022-10-16T18:18:04;17.50;87.13
73833;SHT30;62179;48.444;-4.464;2022-10-16T18:20:30;17.50;87.00
73833;SHT30;62179;48.444;-4.464;2022-10-16T18:22:56;17.47;87.36
73833;SHT30;62179;48.444;-4.464;2022-10-16T18:25:21;17.50;86.72
73833;SHT30;62179;48.444;-4.464;2022-10-16T18:27:47;17.49;86.65
73833;SHT30;62179;48.444;-4.464;2022-10-16T18:30:12;17.51;86.83
73833;SHT30;62179;48.444;-4.464;2022-10-16T18:32:40;17.50;86.85
73833;SHT30;62179;48.444;-4.464;2022-10-16T18:35:06;17.50;86.83
73833;SHT30;62179;48.444;-4.464;2022-10-16T18:37:34;17.49;86.71
73833;SHT30;62179;48.444;-4.464;2022-10-16T18:39:59;17.50;86.97
73833;SHT30;62179;48.444;-4.464;2022-10-16T18:42:25;17.49;86.85
73833;SHT30;62179;48.444;-4.464;2022-10-16T18:44:50;17.53;86.73
73833;SHT30;62179;48.444;-4.464;2022-10-16T18:47:15;17.50;86.84
73833;SHT30;62179;48.444;-4.464;2022-10-16T18:49:41;17.49;86.94
73833;SHT30;62179;48.444;-4.464;2022-10-16T18:52:08;17.50;87.12
73833;SHT30;62179;48.444;-4.464;2022-10-16T18:54:34;17.49;86.90
73833;SHT30;62179;48.444;-4.464;2022-10-16T18:57:01;17.46;86.54
73833;SHT30;62179;48.444;-4.464;2022-10-16T18:59:27;17.49;87.07
73833;SHT30;62179;48.444;-4.464;2022-10-16T19:01:53;17.49;87.13
73833;SHT30;62179;48.444;-4.464;2022-10-16T19:04:18;17.49;86.44
73833;SHT30;62179;48.444;-4.464;2022-10-16T19:06:48;17.49;86.62
73833;SHT30;62179;48.444;-4.464;2022-10-16T19:09:15;17.50;86.30
73833;SHT30;62179;48.444;-4.464;2022-10-16T19:11:42;17.50;86.62
73833;SHT30;62179;48.444;-4.464;2022-10-16T19:14:12;17.47;86.53
73833;SHT30;62179;48.444;-4.464;2022-10-16T19:16:38;17.50;86.95
73833;SHT30;62179;48.444;-4.464;2022-10-16T19:19:07;17.47;86.88
73833;SHT30;62179;48.444;-4.464;2022-10-16T19:21:36;17.47;86.64
73833;SHT30;62179;48.444;-4.464;2022-10-16T19:24:04;17.49;86.36
73833;SHT30;62179;48.444;-4.464;2022-10-16T19:26:31;17.49;86.20
73833;SHT30;62179;48.444;-4.464;2022-10-16T19:28:58;17.49;86.62
73833;SHT30;62179;48.444;-4.464;2022-10-16T19:31:26;17.47;86.36
73833;SHT30;62179;48.444;-4.464;2022-10-16T19:33:54;17.47;86.79
73833;SHT30;62179;48.444;-4.464;2022-10-16T19:36:25;17.46;86.69
73833;SHT30;62179;48.444;-4.464;2022-10-16T19:38:56;17.45;86.41
73833;SHT30;62179;48.444;-4.464;2022-10-16T19:41:23;17.46;85.98
73833;SHT30;62179;48.444;-4.464;2022-10-16T19:43:49;17.43;86.55
73833;SHT30;62179;48.444;-4.464;2022-10-16T19:46:20;17.45;86.62
73833;SHT30;62179;48.444;-4.464;2022-10-16T19:48:46;17.46;86.44
73833;SHT30;62179;48.444;-4.464;2022-10-16T19:51:17;17.43;86.70
73833;SHT30;62179;48.444;-4.464;2022-10-16T19:53:45;17.43;86.53
73833;SHT30;62179;48.444;-4.464;2022-10-16T19:56:16;17.43;86.86
73833;SHT30;62179;48.444;-4.464;2022-10-16T19:58:43;17.46;86.90
73833;SHT30;62179;48.444;-4.464;2022-10-16T20:01:09;17.45;86.81
73833;SHT30;62179;48.444;-4.464;2022-10-16T20:03:34;17.45;86.31
73833;SHT30;62179;48.444;-4.464;2022-10-16T20:06:00;17.45;86.21
73833;SHT30;62179;48.444;-4.464;2022-10-16T20:08:31;17.43;86.72
73833;SHT30;62179;48.444;-4.464;2022-10-16T20:10:57;17.43;86.34
73833;SHT30;62179;48.444;-4.464;2022-10-16T20:13:23;17.45;86.30
73833;SHT30;62179;48.444;-4.464;2022-10-16T20:15:48;17.43;86.44
73833;SHT30;62179;48.444;-4.464;2022-10-16T20:18:14;17.42;86.36
73833;SHT30;62179;48.444;-4.464;2022-10-16T20:20:42;17.39;86.45
73833;SHT30;62179;48.444;-4.464;2022-10-16T20:23:07;17.38;86.73
73833;SHT30;62179;48.444;-4.464;2022-10-16T20:25:39;17.39;86.52
73833;SHT30;62179;48.444;-4.464;2022-10-16T20:28:05;17.39;86.77
73833;SHT30;62179;48.444;-4.464;2022-10-16T20:30:39;17.39;86.92
73833;SHT30;62179;48.444;-4.464;2022-10-16T20:33:05;17.38;86.56
73833;SHT30;62179;48.444;-4.464;2022-10-16T20:35:56;17.40;86.46
73833;SHT30;62179;48.444;-4.464;2022-10-16T20:38:22;17.38;86.28
73833;SHT30;62179;48.444;-4.464;2022-10-16T20:40:50;17.40;86.10
73833;SHT30;62179;48.444;-4.464;2022-10-16T20:43:21;17.38;86.07
73833;SHT30;62179;48.444;-4.464;2022-10-16T20:45:46;17.36;86.46
73833;SHT30;62179;48.444;-4.464;2022-10-16T20:48:12;17.35;86.31
73833;SHT30;62179;48.444;-4.464;2022-10-16T20:50:39;17.35;86.18
73833;SHT30;62179;48.444;-4.464;2022-10-16T20:53:05;17.33;85.99
73833;SHT30;62179;48.444;-4.464;2022-10-16T20:55:34;17.32;86.08
73833;SHT30;62179;48.444;-4.464;2022-10-16T20:57:59;17.32;85.89
73833;SHT30;62179;48.444;-4.464;2022-10-16T21:00:25;17.30;85.98
73833;SHT30;62179;48.444;-4.464;2022-10-16T21:02:51;17.29;86.05
73833;SHT30;62179;48.444;-4.464;2022-10-16T21:05:18;17.28;85.75
73833;SHT30;62179;48.444;-4.464;2022-10-16T21:07:43;17.26;85.81
73833;SHT30;62179;48.444;-4.464;2022-10-16T21:10:09;17.26;85.45
73833;SHT30;62179;48.444;-4.464;2022-10-16T21:12:34;17.23;85.44
73833;SHT30;62179;48.444;-4.464;2022-10-16T21:15:00;17.25;85.36
73833;SHT30;62179;48.444;-4.464;2022-10-16T21:17:25;17.23;85.08
73833;SHT30;62179;48.444;-4.464;2022-10-16T21:19:51;17.23;85.15
73833;SHT30;62179;48.444;-4.464;2022-10-16T21:22:16;17.20;85.14
73833;SHT30;62179;48.444;-4.464;2022-10-16T21:24:41;17.18;85.07
73833;SHT30;62179;48.444;-4.464;2022-10-16T21:27:07;17.18;85.10
73833;SHT30;62179;48.444;-4.464;2022-10-16T21:29:33;17.15;85.06
73833;SHT30;62179;48.444;-4.464;2022-10-16T21:31:58;17.16;84.93
73833;SHT30;62179;48.444;-4.464;2022-10-16T21:34:24;17.14;85.09
73833;SHT30;62179;48.444;-4.464;2022-10-16T21:36:49;17.15;84.96
73833;SHT30;62179;48.444;-4.464;2022-10-16T21:39:17;17.15;85.19
73833;SHT30;62179;48.444;-4.464;2022-10-16T21:41:45;17.12;85.07
73833;SHT30;62179;48.444;-4.464;2022-10-16T21:44:11;17.14;85.29
73833;SHT30;62179;48.444;-4.464;2022-10-16T21:46:39;17.12;85.18
73833;SHT30;62179;48.444;-4.464;2022-10-16T21:49:08;17.12;85.26
73833;SHT30;62179;48.444;-4.464;2022-10-16T21:51:36;17.11;85.11
73833;SHT30;62179;48.444;-4.464;2022-10-16T21:54:04;17.12;85.40
73833;SHT30;62179;48.444;-4.464;2022-10-16T21:56:29;17.11;85.58
73833;SHT30;62179;48.444;-4.464;2022-10-16T21:58:55;17.14;85.52
73833;SHT30;62179;48.444;-4.464;2022-10-16T22:01:23;17.14;85.58
73833;SHT30;62179;48.444;-4.464;2022-10-16T22:03:49;17.14;85.55
73833;SHT30;62179;48.444;-4.464;2022-10-16T22:06:20;17.16;85.42
73833;SHT30;62179;48.444;-4.464;2022-10-16T22:08:50;17.16;85.91
73833;SHT30;62179;48.444;-4.464;2022-10-16T22:11:22;17.16;86.07
73833;SHT30;62179;48.444;-4.464;2022-10-16T22:13:48;17.16;85.90
73833;SHT30;62179;48.444;-4.464;2022-10-16T22:16:14;17.18;85.90
73833;SHT30;62179;48.444;-4.464;2022-10-16T22:18:40;17.19;85.88
73833;SHT30;62179;48.444;-4.464;2022-10-16T22:21:08;17.19;86.32
73833;SHT30;62179;48.444;-4.464;2022-10-16T22:23:34;17.20;85.89
73833;SHT30;62179;48.444;-4.464;2022-10-16T22:26:02;17.23;85.93
73833;SHT30;62179;48.444;-4.464;2022-10-16T22:28:28;17.19;86.06
73833;SHT30;62179;48.444;-4.464;2022-10-16T22:30:53;17.23;85.88
73833;SHT30;62179;48.444;-4.464;2022-10-16T22:33:20;17.23;86.20
73833;SHT30;62179;48.444;-4.464;2022-10-16T22:35:46;17.25;85.98
73833;SHT30;62179;48.444;-4.464;2022-10-16T22:38:12;17.25;85.74
73833;SHT30;62179;48.444;-4.464;2022-10-16T22:40:39;17.26;86.02
73833;SHT30;62179;48.444;-4.464;2022-10-16T22:43:06;17.28;85.49
73833;SHT30;62179;48.444;-4.464;2022-10-16T22:45:34;17.25;85.89
73833;SHT30;62179;48.444;-4.464;2022-10-16T22:48:01;17.26;85.67
73833;SHT30;62179;48.444;-4.464;2022-10-16T22:50:27;17.25;85.94
73833;SHT30;62179;48.444;-4.464;2022-10-16T22:52:54;17.28;85.80
